sensor_id;sensor_type;location;lat;lon;timestamp;pressure;altitude;pressure_sealevel;temperature;humidity
32251;BME280;41295;48.518;9.206;2022-12-17T00:00:44;97428.97;;;-2.08;69.01
32251;BME280;41295;48.518;9.206;2022-12-17T00:03:04;97431.44;;;-2.11;69.40
32251;BME280;41295;48.518;9.206;2022-12-17T00:05:25;97433.06;;;-2.16;69.64
32251;BME280;41295;48.518;9.206;2022-12-17T00:07:55;97428.69;;;-2.25;69.31
32251;BME280;41295;48.518;9.206;2022-12-17T00:10:15;97433.72;;;-2.30;69.23
32251;BME280;41295;48.518;9.206;2022-12-17T00:12:35;97436.16;;;-2.37;68.93
32251;BME280;41295;48.518;9.206;2022-12-17T00:14:58;97433.50;;;-2.44;68.68
32251;BME280;41295;48.518;9.206;2022-12-17T00:17:18;97441.84;;;-2.54;68.45
32251;BME280;41295;48.518;9.206;2022-12-17T00:19:38;97440.94;;;-2.58;68.51
32251;BME280;41295;48.518;9.206;2022-12-17T00:21:59;97442.56;;;-2.63;68.64
32251;BME280;41295;48.518;9.206;2022-12-17T00:24:20;97451.03;;;-2.62;68.21
32251;BME280;41295;48.518;9.206;2022-12-17T00:26:40;97449.31;;;-2.65;67.61
32251;BME280;41295;48.518;9.206;2022-12-17T00:29:08;97461.84;;;-2.79;67.41
32251;BME280;41295;48.518;9.206;2022-12-17T00:31:30;97465.06;;;-2.88;67.28
32251;BME280;41295;48.518;9.206;2022-12-17T00:33:50;97473.53;;;-2.89;67.76
32251;BME280;41295;48.518;9.206;2022-12-17T00:36:10;97475.78;;;-2.61;67.50
32251;BME280;41295;48.518;9.206;2022-12-17T00:38:30;97481.59;;;-2.69;67.63
32251;BME280;41295;48.518;9.206;2022-12-17T00:40:51;97478.41;;;-2.55;67.81
32251;BME280;41295;48.518;9.206;2022-12-17T00:43:12;97475.16;;;-2.46;66.28
32251;BME280;41295;48.518;9.206;2022-12-17T00:45:32;97471.69;;;-2.50;66.88
32251;BME280;41295;48.518;9.206;2022-12-17T00:47:56;97481.69;;;-2.62;67.00
32251;BME280;41295;48.518;9.206;2022-12-17T00:50:16;97481.59;;;-2.69;67.25
32251;BME280;41295;48.518;9.206;2022-12-17T00:52:36;97480.53;;;-2.79;67.09
32251;BME280;41295;48.518;9.206;2022-12-17T00:55:06;97484.69;;;-2.84;67.15
32251;BME280;41295;48.518;9.206;2022-12-17T00:57:37;97482.84;;;-2.93;67.41
32251;BME280;41295;48.518;9.206;2022-12-17T00:59:57;97488.03;;;-2.90;67.50
32251;BME280;41295;48.518;9.206;2022-12-17T01:02:18;97488.75;;;-2.95;67.28
32251;BME280;41295;48.518;9.206;2022-12-17T01:04:39;97496.28;;;-3.02;66.97
32251;BME280;41295;48.518;9.206;2022-12-17T01:06:59;97490.28;;;-3.04;67.26
32251;BME280;41295;48.518;9.206;2022-12-17T01:09:19;97497.84;;;-3.08;67.31
32251;BME280;41295;48.518;9.206;2022-12-17T01:11:39;97497.16;;;-2.99;67.25
32251;BME280;41295;48.518;9.206;2022-12-17T01:13:59;97496.94;;;-3.10;67.63
32251;BME280;41295;48.518;9.206;2022-12-17T01:16:20;97499.44;;;-3.14;67.24
32251;BME280;41295;48.518;9.206;2022-12-17T01:18:40;97502.75;;;-3.18;67.46
32251;BME280;41295;48.518;9.206;2022-12-17T01:21:01;97506.94;;;-3.21;67.25
32251;BME280;41295;48.518;9.206;2022-12-17T01:23:22;97501.84;;;-3.20;67.55
32251;BME280;41295;48.518;9.206;2022-12-17T01:25:42;97496.03;;;-3.14;66.46
32251;BME280;41295;48.518;9.206;2022-12-17T01:28:02;97494.19;;;-3.20;66.47
32251;BME280;41295;48.518;9.206;2022-12-17T01:30:22;97494.88;;;-3.29;66.39
32251;BME280;41295;48.518;9.206;2022-12-17T01:32:43;97497.34;;;-3.33;66.43
32251;BME280;41295;48.518;9.206;2022-12-17T01:35:04;97501.53;;;-3.35;66.86
32251;BME280;41295;48.518;9.206;2022-12-17T01:37:25;97510.00;;;-3.38;66.76
32251;BME280;41295;48.518;9.206;2022-12-17T01:39:41;97498.94;;;-3.39;66.81
32251;BME280;41295;48.518;9.206;2022-12-17T01:42:02;97508.16;;;-3.44;66.77
32251;BME280;41295;48.518;9.206;2022-12-17T01:44:45;97510.72;;;-3.44;66.57
32251;BME280;41295;48.518;9.206;2022-12-17T01:47:07;97509.69;;;-3.52;65.81
32251;BME280;41295;48.518;9.206;2022-12-17T01:49:28;97510.47;;;-3.55;65.90
32251;BME280;41295;48.518;9.206;2022-12-17T01:51:49;97517.28;;;-3.54;66.05
32251;BME280;41295;48.518;9.206;2022-12-17T01:54:12;97518.97;;;-3.56;66.06
32251;BME280;41295;48.518;9.206;2022-12-17T01:56:34;97520.69;;;-3.55;65.75
32251;BME280;41295;48.518;9.206;2022-12-17T01:58:56;97533.03;;;-3.33;65.27
32251;BME280;41295;48.518;9.206;2022-12-17T02:01:16;97535.28;;;-3.47;64.99
32251;BME280;41295;48.518;9.206;2022-12-17T02:03:36;97536.22;;;-3.44;65.38
32251;BME280;41295;48.518;9.206;2022-12-17T02:06:03;97537.78;;;-3.51;65.47
32251;BME280;41295;48.518;9.206;2022-12-17T02:08:32;97544.94;;;-3.32;64.52
32251;BME280;41295;48.518;9.206;2022-12-17T02:11:02;97541.09;;;-3.53;65.06
32251;BME280;41295;48.518;9.206;2022-12-17T02:13:29;97538.34;;;-3.63;65.25
32251;BME280;41295;48.518;9.206;2022-12-17T02:15:54;97541.69;;;-3.65;65.58
32251;BME280;41295;48.518;9.206;2022-12-17T02:18:20;97556.09;;;-3.67;65.21
32251;BME280;41295;48.518;9.206;2022-12-17T02:20:42;97557.75;;;-3.68;65.42
32251;BME280;41295;48.518;9.206;2022-12-17T02:23:13;97557.75;;;-3.68;65.01
32251;BME280;41295;48.518;9.206;2022-12-17T02:25:42;97559.44;;;-3.70;64.18
32251;BME280;41295;48.518;9.206;2022-12-17T02:28:06;97552.47;;;-3.77;63.97
32251;BME280;41295;48.518;9.206;2022-12-17T02:30:27;97548.84;;;-3.86;63.12
32251;BME280;41295;48.518;9.206;2022-12-17T02:32:49;97551.19;;;-3.95;63.00
32251;BME280;41295;48.518;9.206;2022-12-17T02:35:13;97558.59;;;-4.04;63.02
32251;BME280;41295;48.518;9.206;2022-12-17T02:37:30;97555.78;;;-4.15;62.70
32251;BME280;41295;48.518;9.206;2022-12-17T02:39:51;97559.88;;;-4.22;63.06
32251;BME280;41295;48.518;9.206;2022-12-17T02:42:11;97565.69;;;-4.26;62.95
32251;BME280;41295;48.518;9.206;2022-12-17T02:44:33;97571.50;;;-4.30;63.00
32251;BME280;41295;48.518;9.206;2022-12-17T02:46:55;97563.88;;;-4.30;62.97
32251;BME280;41295;48.518;9.206;2022-12-17T02:49:16;97571.41;;;-4.35;62.58
32251;BME280;41295;48.518;9.206;2022-12-17T02:51:36;97578.03;;;-4.42;62.69
32251;BME280;41295;48.518;9.206;2022-12-17T02:54:00;97584.75;;;-4.44;62.58
32251;BME280;41295;48.518;9.206;2022-12-17T02:56:21;97587.88;;;-4.54;62.34
32251;BME280;41295;48.518;9.206;2022-12-17T02:58:41;97587.84;;;-4.56;62.63
32251;BME280;41295;48.518;9.206;2022-12-17T03:01:03;97593.66;;;-4.60;62.91
32251;BME280;41295;48.518;9.206;2022-12-17T03:03:23;97598.50;;;-4.68;62.71
32251;BME280;41295;48.518;9.206;2022-12-17T03:05:50;97604.34;;;-4.72;62.62
32251;BME280;41295;48.518;9.206;2022-12-17T03:08:10;97615.22;;;-4.78;62.21
32251;BME280;41295;48.518;9.206;2022-12-17T03:10:30;97607.50;;;-4.81;62.20
32251;BME280;41295;48.518;9.206;2022-12-17T03:12:50;97608.09;;;-4.90;62.18
32251;BME280;41295;48.518;9.206;2022-12-17T03:15:11;97614.78;;;-4.93;61.90
32251;BME280;41295;48.518;9.206;2022-12-17T03:17:32;97619.72;;;-4.98;61.83
32251;BME280;41295;48.518;9.206;2022-12-17T03:19:52;97620.50;;;-5.01;61.95
32251;BME280;41295;48.518;9.206;2022-12-17T03:22:13;97622.41;;;-4.93;62.19
32251;BME280;41295;48.518;9.206;2022-12-17T03:24:33;97624.84;;;-4.97;62.29
32251;BME280;41295;48.518;9.206;2022-12-17T03:26:53;97618.03;;;-4.98;62.35
32251;BME280;41295;48.518;9.206;2022-12-17T03:29:13;97624.03;;;-4.96;62.67
32251;BME280;41295;48.518;9.206;2022-12-17T03:31:33;97629.16;;;-4.94;62.58
32251;BME280;41295;48.518;9.206;2022-12-17T03:33:54;97629.94;;;-4.97;62.62
32251;BME280;41295;48.518;9.206;2022-12-17T03:36:14;97630.00;;;-4.95;63.17
32251;BME280;41295;48.518;9.206;2022-12-17T03:38:35;97626.63;;;-4.94;62.92
32251;BME280;41295;48.518;9.206;2022-12-17T03:40:55;97622.94;;;-4.75;61.98
32251;BME280;41295;48.518;9.206;2022-12-17T03:43:16;97619.97;;;-4.89;62.49
32251;BME280;41295;48.518;9.206;2022-12-17T03:45:36;97626.84;;;-4.86;62.62
32251;BME280;41295;48.518;9.206;2022-12-17T03:48:04;97627.09;;;-4.77;62.65
32251;BME280;41295;48.518;9.206;2022-12-17T03:50:26;97626.81;;;-4.88;63.12
32251;BME280;41295;48.518;9.206;2022-12-17T03:52:46;97626.06;;;-4.84;62.89
32251;BME280;41295;48.518;9.206;2022-12-17T03:55:07;97622.53;;;-4.89;62.61
32251;BME280;41295;48.518;9.206;2022-12-17T03:57:27;97624.00;;;-4.97;62.06
32251;BME280;41295;48.518;9.206;2022-12-17T03:59:47;97626.38;;;-5.02;61.78
32251;BME280;41295;48.518;9.206;2022-12-17T04:02:07;97622.75;;;-5.10;61.62
32251;BME280;41295;48.518;9.206;2022-12-17T04:04:28;97632.69;;;-5.18;61.38
32251;BME280;41295;48.518;9.206;2022-12-17T04:06:49;97624.78;;;-5.27;61.14
32251;BME280;41295;48.518;9.206;2022-12-17T04:09:09;97637.22;;;-5.37;60.58
32251;BME280;41295;48.518;9.206;2022-12-17T04:11:29;97634.38;;;-5.46;60.79
32251;BME280;41295;48.518;9.206;2022-12-17T04:13:49;97648.56;;;-5.53;61.40
32251;BME280;41295;48.518;9.206;2022-12-17T04:16:09;97650.19;;;-5.55;61.53
32251;BME280;41295;48.518;9.206;2022-12-17T04:18:30;97653.66;;;-5.53;61.90
32251;BME280;41295;48.518;9.206;2022-12-17T04:20:50;97654.59;;;-5.49;62.56
32251;BME280;41295;48.518;9.206;2022-12-17T04:23:11;97663.09;;;-5.49;62.31
32251;BME280;41295;48.518;9.206;2022-12-17T04:25:31;97670.03;;;-5.43;61.98
32251;BME280;41295;48.518;9.206;2022-12-17T04:27:51;97669.44;;;-5.36;61.53
32251;BME280;41295;48.518;9.206;2022-12-17T04:30:11;97677.56;;;-5.46;61.13
32251;BME280;41295;48.518;9.206;2022-12-17T04:32:32;97682.47;;;-5.52;61.01
32251;BME280;41295;48.518;9.206;2022-12-17T04:34:52;97683.19;;;-5.57;61.08
32251;BME280;41295;48.518;9.206;2022-12-17T04:37:12;97678.09;;;-5.57;61.10
32251;BME280;41295;48.518;9.206;2022-12-17T04:39:34;97677.72;;;-5.68;61.25
32251;BME280;41295;48.518;9.206;2022-12-17T04:41:54;97677.50;;;-5.75;60.56
32251;BME280;41295;48.518;9.206;2022-12-17T04:44:28;97677.28;;;-5.82;60.41
32251;BME280;41295;48.518;9.206;2022-12-17T04:46:49;97675.34;;;-5.89;60.90
32251;BME280;41295;48.518;9.206;2022-12-17T04:49:10;97689.50;;;-5.96;60.83
32251;BME280;41295;48.518;9.206;2022-12-17T04:51:30;97687.59;;;-6.01;60.86
32251;BME280;41295;48.518;9.206;2022-12-17T04:53:50;97689.41;;;-5.99;61.83
32251;BME280;41295;48.518;9.206;2022-12-17T04:56:12;97692.00;;;-5.97;61.98
32251;BME280;41295;48.518;9.206;2022-12-17T04:58:33;97686.09;;;-5.96;63.42
32251;BME280;41295;48.518;9.206;2022-12-17T05:00:53;97683.81;;;-5.88;63.62
32251;BME280;41295;48.518;9.206;2022-12-17T05:03:15;97684.75;;;-5.86;63.22
32251;BME280;41295;48.518;9.206;2022-12-17T05:05:36;97691.13;;;-5.98;62.99
32251;BME280;41295;48.518;9.206;2022-12-17T05:07:59;97696.09;;;-6.01;62.86
32251;BME280;41295;48.518;9.206;2022-12-17T05:10:20;97694.28;;;-6.05;61.63
32251;BME280;41295;48.518;9.206;2022-12-17T05:12:41;97687.22;;;-6.14;60.28
32251;BME280;41295;48.518;9.206;2022-12-17T05:15:02;97692.81;;;-6.23;60.50
32251;BME280;41295;48.518;9.206;2022-12-17T05:17:22;97695.91;;;-6.32;61.15
32251;BME280;41295;48.518;9.206;2022-12-17T05:19:42;97701.75;;;-6.34;61.31
32251;BME280;41295;48.518;9.206;2022-12-17T05:22:02;97710.50;;;-6.26;61.57
32251;BME280;41295;48.518;9.206;2022-12-17T05:24:23;97715.56;;;-6.26;60.72
32251;BME280;41295;48.518;9.206;2022-12-17T05:26:43;97721.34;;;-6.30;60.39
32251;BME280;41295;48.518;9.206;2022-12-17T05:29:04;97723.97;;;-6.27;60.27
32251;BME280;41295;48.518;9.206;2022-12-17T05:31:24;97722.91;;;-6.34;60.11
32251;BME280;41295;48.518;9.206;2022-12-17T05:33:43;97729.81;;;-6.30;61.78
32251;BME280;41295;48.518;9.206;2022-12-17T05:36:04;97727.41;;;-6.26;62.73
32251;BME280;41295;48.518;9.206;2022-12-17T05:38:24;97726.72;;;-6.22;62.59
32251;BME280;41295;48.518;9.206;2022-12-17T05:40:44;97731.16;;;-6.17;63.41
32251;BME280;41295;48.518;9.206;2022-12-17T05:43:06;97736.38;;;-6.12;64.47
32251;BME280;41295;48.518;9.206;2022-12-17T05:45:29;97727.16;;;-6.10;63.53
32251;BME280;41295;48.518;9.206;2022-12-17T05:48:04;97736.38;;;-6.12;62.78
32251;BME280;41295;48.518;9.206;2022-12-17T05:50:24;97741.16;;;-6.20;62.11
32251;BME280;41295;48.518;9.206;2022-12-17T05:52:45;97742.03;;;-6.19;61.09
32251;BME280;41295;48.518;9.206;2022-12-17T05:55:05;97754.34;;;-6.30;60.42
32251;BME280;41295;48.518;9.206;2022-12-17T05:57:26;97753.94;;;-6.41;60.62
32251;BME280;41295;48.518;9.206;2022-12-17T05:59:46;97762.06;;;-6.50;60.10
32251;BME280;41295;48.518;9.206;2022-12-17T06:02:07;97766.88;;;-6.58;60.92
32251;BME280;41295;48.518;9.206;2022-12-17T06:04:33;97768.53;;;-6.58;61.90
32251;BME280;41295;48.518;9.206;2022-12-17T06:07:00;97773.56;;;-6.60;62.16
32251;BME280;41295;48.518;9.206;2022-12-17T06:09:20;97776.97;;;-6.59;63.13
32251;BME280;41295;48.518;9.206;2022-12-17T06:11:41;97784.75;;;-6.55;63.41
32251;BME280;41295;48.518;9.206;2022-12-17T06:14:10;97788.47;;;-6.45;65.39
32251;BME280;41295;48.518;9.206;2022-12-17T06:16:31;97782.56;;;-6.45;65.52
32251;BME280;41295;48.518;9.206;2022-12-17T06:19:06;97776.72;;;-6.43;64.61
32251;BME280;41295;48.518;9.206;2022-12-17T06:21:27;97782.38;;;-6.50;64.67
32251;BME280;41295;48.518;9.206;2022-12-17T06:23:47;97774.94;;;-6.45;64.85
32251;BME280;41295;48.518;9.206;2022-12-17T06:26:07;97771.06;;;-6.35;65.54
32251;BME280;41295;48.518;9.206;2022-12-17T06:28:36;97789.50;;;-6.18;65.93
32251;BME280;41295;48.518;9.206;2022-12-17T06:30:56;97787.13;;;-6.36;65.82
32251;BME280;41295;48.518;9.206;2022-12-17T06:33:16;97794.53;;;-6.41;66.25
32251;BME280;41295;48.518;9.206;2022-12-17T06:35:38;97790.28;;;-6.42;65.67
32251;BME280;41295;48.518;9.206;2022-12-17T06:37:58;97789.53;;;-6.40;66.04
32251;BME280;41295;48.518;9.206;2022-12-17T06:40:19;97789.72;;;-6.35;65.40
32251;BME280;41295;48.518;9.206;2022-12-17T06:42:39;97788.91;;;-6.34;65.00
32251;BME280;41295;48.518;9.206;2022-12-17T06:44:59;97793.25;;;-6.31;65.24
32251;BME280;41295;48.518;9.206;2022-12-17T06:47:19;97800.13;;;-6.27;65.62
32251;BME280;41295;48.518;9.206;2022-12-17T06:49:39;97797.59;;;-6.27;65.53
32251;BME280;41295;48.518;9.206;2022-12-17T06:52:03;97792.78;;;-6.21;66.16
32251;BME280;41295;48.518;9.206;2022-12-17T06:54:23;97796.41;;;-6.14;65.97
32251;BME280;41295;48.518;9.206;2022-12-17T06:56:44;97793.91;;;-6.12;65.53
32251;BME280;41295;48.518;9.206;2022-12-17T06:59:04;97797.59;;;-6.04;66.43
32251;BME280;41295;48.518;9.206;2022-12-17T07:01:24;97801.09;;;-6.00;65.70
32251;BME280;41295;48.518;9.206;2022-12-17T07:03:45;97807.31;;;-5.92;65.90
32251;BME280;41295;48.518;9.206;2022-12-17T07:06:05;97802.25;;;-5.92;65.30
32251;BME280;41295;48.518;9.206;2022-12-17T07:08:27;97815.69;;;-5.95;65.67
32251;BME280;41295;48.518;9.206;2022-12-17T07:10:47;97809.72;;;-5.97;66.12
32251;BME280;41295;48.518;9.206;2022-12-17T07:13:08;97813.19;;;-5.93;66.37
32251;BME280;41295;48.518;9.206;2022-12-17T07:15:28;97812.28;;;-5.95;66.44
32251;BME280;41295;48.518;9.206;2022-12-17T07:17:55;97818.22;;;-5.95;66.66
32251;BME280;41295;48.518;9.206;2022-12-17T07:20:15;97827.47;;;-5.97;66.91
32251;BME280;41295;48.518;9.206;2022-12-17T07:22:35;97827.66;;;-5.92;66.45
32251;BME280;41295;48.518;9.206;2022-12-17T07:24:57;97828.38;;;-5.95;67.02
32251;BME280;41295;48.518;9.206;2022-12-17T07:27:16;97836.81;;;-5.96;67.42
32251;BME280;41295;48.518;9.206;2022-12-17T07:29:37;97839.31;;;-5.97;67.99
32251;BME280;41295;48.518;9.206;2022-12-17T07:31:57;97846.06;;;-5.98;68.01
32251;BME280;41295;48.518;9.206;2022-12-17T07:34:17;97850.81;;;-5.84;68.01
32251;BME280;41295;48.518;9.206;2022-12-17T07:36:39;97853.19;;;-5.87;69.08
32251;BME280;41295;48.518;9.206;2022-12-17T07:38:59;97860.03;;;-5.86;68.65
32251;BME280;41295;48.518;9.206;2022-12-17T07:41:21;97864.28;;;-5.85;68.77
32251;BME280;41295;48.518;9.206;2022-12-17T07:43:41;97868.50;;;-5.86;68.58
32251;BME280;41295;48.518;9.206;2022-12-17T07:46:01;97873.06;;;-5.77;69.29
32251;BME280;41295;48.518;9.206;2022-12-17T07:48:22;97868.56;;;-5.61;68.98
32251;BME280;41295;48.518;9.206;2022-12-17T07:50:42;97870.31;;;-5.59;68.72
32251;BME280;41295;48.518;9.206;2022-12-17T07:53:03;97878.88;;;-5.57;68.88
32251;BME280;41295;48.518;9.206;2022-12-17T07:55:24;97874.88;;;-5.50;68.54
32251;BME280;41295;48.518;9.206;2022-12-17T07:57:45;97874.72;;;-5.55;67.82
32251;BME280;41295;48.518;9.206;2022-12-17T08:00:06;97884.66;;;-5.61;68.36
32251;BME280;41295;48.518;9.206;2022-12-17T08:02:27;97889.72;;;-5.61;69.06
32251;BME280;41295;48.518;9.206;2022-12-17T08:04:47;97883.22;;;-5.54;68.77
32251;BME280;41295;48.518;9.206;2022-12-17T08:07:07;97881.38;;;-5.58;68.44
32251;BME280;41295;48.518;9.206;2022-12-17T08:09:28;97882.00;;;-5.39;67.97
32251;BME280;41295;48.518;9.206;2022-12-17T08:11:48;97889.88;;;-5.33;66.73
32251;BME280;41295;48.518;9.206;2022-12-17T08:14:10;97893.66;;;-5.46;67.78
32251;BME280;41295;48.518;9.206;2022-12-17T08:16:30;97891.81;;;-5.50;67.39
32251;BME280;41295;48.518;9.206;2022-12-17T08:18:50;97893.44;;;-5.52;67.74
32251;BME280;41295;48.518;9.206;2022-12-17T08:21:10;97906.00;;;-5.56;67.87
32251;BME280;41295;48.518;9.206;2022-12-17T08:23:30;97906.50;;;-5.66;67.53
32251;BME280;41295;48.518;9.206;2022-12-17T08:25:51;97912.16;;;-5.50;67.43
32251;BME280;41295;48.518;9.206;2022-12-17T08:28:25;97913.53;;;-5.59;67.91
32251;BME280;41295;48.518;9.206;2022-12-17T08:30:53;97920.94;;;-5.65;68.40
32251;BME280;41295;48.518;9.206;2022-12-17T08:33:13;97926.66;;;-5.48;68.27
32251;BME280;41295;48.518;9.206;2022-12-17T08:35:34;97938.25;;;-5.55;67.98
32251;BME280;41295;48.518;9.206;2022-12-17T08:38:00;97946.53;;;-5.60;68.31
32251;BME280;41295;48.518;9.206;2022-12-17T08:40:20;97937.91;;;-5.64;68.44
32251;BME280;41295;48.518;9.206;2022-12-17T08:42:40;97936.19;;;-5.65;68.12
32251;BME280;41295;48.518;9.206;2022-12-17T08:45:01;97937.69;;;-5.47;68.47
32251;BME280;41295;48.518;9.206;2022-12-17T08:47:22;97933.84;;;-5.36;67.94
32251;BME280;41295;48.518;9.206;2022-12-17T08:49:42;97923.16;;;-5.50;68.02
32251;BME280;41295;48.518;9.206;2022-12-17T08:52:03;97936.97;;;-5.43;67.35
32251;BME280;41295;48.518;9.206;2022-12-17T08:54:23;97938.66;;;-5.44;67.84
32251;BME280;41295;48.518;9.206;2022-12-17T08:56:43;97952.13;;;-5.46;68.06
32251;BME280;41295;48.518;9.206;2022-12-17T08:59:03;97951.28;;;-5.47;68.28
32251;BME280;41295;48.518;9.206;2022-12-17T09:01:35;97953.63;;;-5.51;68.68
32251;BME280;41295;48.518;9.206;2022-12-17T09:03:57;97954.59;;;-5.48;68.10
32251;BME280;41295;48.518;9.206;2022-12-17T09:06:17;97960.44;;;-5.27;68.17
32251;BME280;41295;48.518;9.206;2022-12-17T09:08:39;97958.69;;;-5.28;67.76
32251;BME280;41295;48.518;9.206;2022-12-17T09:11:00;97967.72;;;-5.37;68.59
32251;BME280;41295;48.518;9.206;2022-12-17T09:13:20;97981.25;;;-5.38;68.20
32251;BME280;41295;48.518;9.206;2022-12-17T09:15:41;97983.59;;;-5.43;68.70
32251;BME280;41295;48.518;9.206;2022-12-17T09:18:01;97990.53;;;-5.38;69.24
32251;BME280;41295;48.518;9.206;2022-12-17T09:20:23;97988.41;;;-5.27;68.73
32251;BME280;41295;48.518;9.206;2022-12-17T09:22:43;97990.03;;;-5.29;69.00
32251;BME280;41295;48.518;9.206;2022-12-17T09:25:04;97987.69;;;-5.23;68.85
32251;BME280;41295;48.518;9.206;2022-12-17T09:27:24;97992.59;;;-5.05;67.50
32251;BME280;41295;48.518;9.206;2022-12-17T09:29:44;97987.97;;;-5.15;68.64
32251;BME280;41295;48.518;9.206;2022-12-17T09:32:19;97995.09;;;-5.07;68.68
32251;BME280;41295;48.518;9.206;2022-12-17T09:34:39;97993.06;;;-5.15;68.86
32251;BME280;41295;48.518;9.206;2022-12-17T09:37:01;97993.13;;;-5.14;68.89
32251;BME280;41295;48.518;9.206;2022-12-17T09:39:21;98000.69;;;-5.15;69.22
32251;BME280;41295;48.518;9.206;2022-12-17T09:41:49;98003.63;;;-5.04;69.90
32251;BME280;41295;48.518;9.206;2022-12-17T09:44:17;97994.75;;;-5.16;69.59
32251;BME280;41295;48.518;9.206;2022-12-17T09:46:46;97995.66;;;-5.14;70.07
32251;BME280;41295;48.518;9.206;2022-12-17T09:49:14;97986.16;;;-4.95;69.01
32251;BME280;41295;48.518;9.206;2022-12-17T09:51:37;97984.75;;;-5.11;68.50
32251;BME280;41295;48.518;9.206;2022-12-17T09:53:59;97993.13;;;-5.14;69.14
32251;BME280;41295;48.518;9.206;2022-12-17T09:56:20;97984.69;;;-5.13;69.39
32251;BME280;41295;48.518;9.206;2022-12-17T09:58:42;97984.50;;;-4.70;67.15
32251;BME280;41295;48.518;9.206;2022-12-17T10:01:03;97980.16;;;-4.97;68.05
32251;BME280;41295;48.518;9.206;2022-12-17T10:03:24;97983.38;;;-5.01;68.23
32251;BME280;41295;48.518;9.206;2022-12-17T10:05:45;97982.53;;;-5.02;68.58
32251;BME280;41295;48.518;9.206;2022-12-17T10:08:06;97984.22;;;-5.02;68.54
32251;BME280;41295;48.518;9.206;2022-12-17T10:10:30;97976.00;;;-4.95;68.49
32251;BME280;41295;48.518;9.206;2022-12-17T10:12:50;97978.59;;;-4.93;68.23
32251;BME280;41295;48.518;9.206;2022-12-17T10:15:13;97971.81;;;-4.93;68.58
32251;BME280;41295;48.518;9.206;2022-12-17T10:17:33;97976.75;;;-4.98;68.07
32251;BME280;41295;48.518;9.206;2022-12-17T10:19:54;97970.97;;;-4.93;67.86
32251;BME280;41295;48.518;9.206;2022-12-17T10:22:16;97976.28;;;-4.86;67.87
32251;BME280;41295;48.518;9.206;2022-12-17T10:24:43;97979.34;;;-4.96;67.69
32251;BME280;41295;48.518;9.206;2022-12-17T10:27:09;97977.44;;;-5.02;67.97
32251;BME280;41295;48.518;9.206;2022-12-17T10:29:30;97983.06;;;-5.11;67.88
32251;BME280;41295;48.518;9.206;2022-12-17T10:32:10;97983.88;;;-5.12;68.55
32251;BME280;41295;48.518;9.206;2022-12-17T10:34:35;97984.03;;;-5.07;67.74
32251;BME280;41295;48.518;9.206;2022-12-17T10:37:05;97987.88;;;-5.19;67.82
32251;BME280;41295;48.518;9.206;2022-12-17T10:39:36;97996.81;;;-5.05;68.53
32251;BME280;41295;48.518;9.206;2022-12-17T10:41:57;97992.50;;;-4.84;67.32
32251;BME280;41295;48.518;9.206;2022-12-17T10:44:23;97992.38;;;-5.11;67.60
32251;BME280;41295;48.518;9.206;2022-12-17T10:46:44;97990.81;;;-5.08;68.23
32251;BME280;41295;48.518;9.206;2022-12-17T10:49:09;97991.41;;;-5.15;69.03
32251;BME280;41295;48.518;9.206;2022-12-17T10:51:27;97993.13;;;-5.14;69.14
32251;BME280;41295;48.518;9.206;2022-12-17T10:53:50;97994.00;;;-5.13;68.54
32251;BME280;41295;48.518;9.206;2022-12-17T10:56:21;97993.47;;;-5.04;67.57
32251;BME280;41295;48.518;9.206;2022-12-17T10:58:43;97995.91;;;-5.08;68.14
32251;BME280;41295;48.518;9.206;2022-12-17T11:01:06;97990.97;;;-5.03;69.34
32251;BME280;41295;48.518;9.206;2022-12-17T11:03:32;97985.28;;;-4.96;69.51
32251;BME280;41295;48.518;9.206;2022-12-17T11:05:57;97996.34;;;-4.95;69.51
32251;BME280;41295;48.518;9.206;2022-12-17T11:08:18;97984.59;;;-4.91;68.88
32251;BME280;41295;48.518;9.206;2022-12-17T11:10:41;97993.38;;;-4.83;68.50
32251;BME280;41295;48.518;9.206;2022-12-17T11:13:06;97998.59;;;-4.78;68.97
32251;BME280;41295;48.518;9.206;2022-12-17T11:15:31;97987.69;;;-4.76;68.28
32251;BME280;41295;48.518;9.206;2022-12-17T11:17:54;97988.59;;;-4.74;69.08
32251;BME280;41295;48.518;9.206;2022-12-17T11:20:21;97999.63;;;-4.73;68.35
32251;BME280;41295;48.518;9.206;2022-12-17T11:22:47;97998.88;;;-4.71;68.91
32251;BME280;41295;48.518;9.206;2022-12-17T11:25:21;98003.19;;;-4.68;68.81
32251;BME280;41295;48.518;9.206;2022-12-17T11:27:46;98002.56;;;-4.62;68.50
32251;BME280;41295;48.518;9.206;2022-12-17T11:30:16;98004.22;;;-4.63;68.63
32251;BME280;41295;48.518;9.206;2022-12-17T11:32:45;98003.44;;;-4.62;68.23
32251;BME280;41295;48.518;9.206;2022-12-17T11:35:16;98007.00;;;-4.56;68.15
32251;BME280;41295;48.518;9.206;2022-12-17T11:37:46;98004.91;;;-4.42;67.82
32251;BME280;41295;48.518;9.206;2022-12-17T11:40:19;98000.38;;;-4.51;67.48
32251;BME280;41295;48.518;9.206;2022-12-17T11:42:43;97992.75;;;-4.51;68.24
32251;BME280;41295;48.518;9.206;2022-12-17T11:45:17;98007.00;;;-4.56;67.36
32251;BME280;41295;48.518;9.206;2022-12-17T11:47:45;98006.25;;;-4.54;68.20
32251;BME280;41295;48.518;9.206;2022-12-17T11:50:19;98014.84;;;-4.50;68.12
32251;BME280;41295;48.518;9.206;2022-12-17T11:52:48;98012.84;;;-4.35;67.98
32251;BME280;41295;48.518;9.206;2022-12-17T11:55:16;98011.97;;;-4.35;67.95
32251;BME280;41295;48.518;9.206;2022-12-17T11:57:47;98007.09;;;-4.29;68.76
32251;BME280;41295;48.518;9.206;2022-12-17T12:00:15;97998.81;;;-4.22;68.84
32251;BME280;41295;48.518;9.206;2022-12-17T12:02:44;98000.78;;;-4.13;68.64
32251;BME280;41295;48.518;9.206;2022-12-17T12:05:16;98004.41;;;-4.06;68.26
32251;BME280;41295;48.518;9.206;2022-12-17T12:07:41;98007.06;;;-4.03;67.96
32251;BME280;41295;48.518;9.206;2022-12-17T12:10:07;98003.63;;;-4.03;67.65
32251;BME280;41295;48.518;9.206;2022-12-17T12:12:39;97998.63;;;-4.00;67.70
32251;BME280;41295;48.518;9.206;2022-12-17T12:15:07;97994.22;;;-4.06;67.69
32251;BME280;41295;48.518;9.206;2022-12-17T12:17:43;97995.19;;;-4.02;68.00
32251;BME280;41295;48.518;9.206;2022-12-17T12:20:10;98002.09;;;-3.98;68.14
32251;BME280;41295;48.518;9.206;2022-12-17T12:22:41;97990.25;;;-3.97;68.02
32251;BME280;41295;48.518;9.206;2022-12-17T12:25:27;97989.53;;;-3.93;68.21
32251;BME280;41295;48.518;9.206;2022-12-17T12:27:57;97985.31;;;-3.91;68.02
32251;BME280;41295;48.518;9.206;2022-12-17T12:30:22;97979.56;;;-3.86;67.99
32251;BME280;41295;48.518;9.206;2022-12-17T12:32:51;97982.09;;;-3.86;68.06
32251;BME280;41295;48.518;9.206;2022-12-17T12:35:18;97977.97;;;-3.82;67.89